Time;durP1;ratioP1;P1;durP2;ratioP2;P2;SDS_P1;SDS_P2;PMS_P1;PMS_P2;Temp;Humidity;BMP_temperature;BMP_pressure;BME280_temperature;BME280_humidity;BME280_pressure;Samples;Min_cycle;Max_cycle;Signal;HPM_P1;HPM_P2
2023/01/18 00:01:55;;;;;;;15.18;6.15;;;;;;;16.01;63.53;98715.09;5092067;28;20051;-29
2023/01/18 00:04:20;;;;;;;9.48;3.00;;;;;;;16.12;61.90;98734.63;5074241;28;20040;-30
2023/01/18 00:06:46;;;;;;;4.93;1.70;;;;;;;15.78;62.24;98737.44;5074577;28;20106;-29
2023/01/18 00:09:12;;;;;;;9.13;2.35;;;;;;;15.53;62.45;98739.28;5092362;28;20016;-29
2023/01/18 00:11:37;;;;;;;6.72;2.10;;;;;;;15.58;63.62;98733.84;5092028;28;20062;-28
2023/01/18 00:14:03;;;;;;;5.53;1.88;;;;;;;16.55;60.81;98748.06;5074014;28;20028;-30
2023/01/18 00:16:31;;;;;;;9.95;2.17;;;;;;;15.78;63.01;98724.78;5092020;28;20408;-30
2023/01/18 00:18:58;;;;;;;7.82;2.97;;;;;;;15.46;65.22;98714.63;5073977;28;20119;-28
2023/01/18 00:21:25;;;;;;;7.88;2.15;;;;;;;15.87;66.30;98733.03;5091989;28;20032;-30
2023/01/18 00:23:51;;;;;;;16.65;3.00;;;;;;;15.70;70.14;98732.66;5092449;28;20020;-28
2023/01/18 00:26:17;;;;;;;8.60;3.40;;;;;;;15.52;67.40;98732.28;5091975;28;20031;-28
2023/01/18 00:28:42;;;;;;;16.33;2.58;;;;;;;15.26;65.75;98732.53;5091824;28;20051;-28
2023/01/18 00:31:16;;;;;;;8.48;2.53;;;;;;;15.07;68.02;98685.97;5092031;28;20028;-27
2023/01/18 00:33:45;;;;;;;13.85;6.65;;;;;;;15.04;70.76;98729.50;5073757;28;20028;-28
2023/01/18 00:36:12;;;;;;;45.55;21.20;;;;;;;14.88;73.21;98714.59;5091668;28;20044;-30
2023/01/18 00:38:37;;;;;;;32.83;14.10;;;;;;;14.60;71.14;98695.47;5090689;28;20107;-28
2023/01/18 00:41:03;;;;;;;8.52;2.63;;;;;;;14.40;72.96;98699.81;5091201;28;20111;-30
2023/01/18 00:43:37;;;;;;;10.98;5.40;;;;;;;14.16;73.01;98720.34;5091074;28;20102;-30
2023/01/18 00:46:08;;;;;;;11.63;2.33;;;;;;;14.01;72.93;98699.78;5091438;28;20040;-29
2023/01/18 00:48:34;;;;;;;5.78;2.20;;;;;;;14.25;71.43;98721.38;5091325;28;20066;-38
2023/01/18 00:51:00;;;;;;;9.13;2.20;;;;;;;14.26;70.25;98717.59;5091827;28;20107;-29
2023/01/18 00:53:26;;;;;;;9.48;2.45;;;;;;;13.96;72.09;98711.31;5090786;28;20032;-31
2023/01/18 00:55:51;;;;;;;13.73;3.67;;;;;;;13.93;73.32;98701.13;5090193;28;20491;-31
2023/01/18 00:58:17;;;;;;;15.77;2.88;;;;;;;13.83;74.76;98719.94;5091245;28;20020;-28
2023/01/18 01:00:42;;;;;;;13.05;3.50;;;;;;;13.68;75.26;98711.97;5090667;28;20513;-29
2023/01/18 01:03:08;;;;;;;15.00;3.58;;;;;;;13.65;76.13;98729.38;5090525;28;20380;-31
2023/01/18 01:08:22;;;;;;;17.00;3.72;;;;;;;13.36;79.11;98727.28;5090837;28;20050;-29
2023/01/18 01:10:49;;;;;;;13.73;3.35;;;;;;;13.10;81.23;98722.97;5090402;28;20102;-30
2023/01/18 01:27:05;;;;;;;13.68;3.67;;;;;;;12.80;83.75;98698.63;5090984;28;20111;-30
2023/01/18 01:29:31;;;;;;;9.82;2.47;;;;;;;12.79;83.99;98691.69;5090319;28;20462;-32
2023/01/18 01:31:56;;;;;;;13.23;2.92;;;;;;;12.84;83.40;98693.53;5090960;28;20038;-28
2023/01/18 01:34:22;;;;;;;13.68;2.92;;;;;;;12.82;83.88;98703.72;5090032;28;20097;-30
2023/01/18 01:36:49;;;;;;;6.68;2.00;;;;;;;12.79;84.07;98706.91;5090544;28;20031;-31
2023/01/18 01:39:14;;;;;;;11.65;2.67;;;;;;;12.74;83.98;98669.47;5090223;28;20070;-32
2023/01/18 01:41:39;;;;;;;12.05;2.85;;;;;;;12.95;82.96;98689.00;5090329;28;20055;-29
2023/01/18 01:44:18;;;;;;;10.25;4.30;;;;;;;13.03;82.47;98675.06;5072420;28;20118;-29
2023/01/18 01:46:57;;;;;;;9.25;2.22;;;;;;;12.98;82.45;98688.47;5072724;28;20522;-28
2023/01/18 01:49:31;;;;;;;12.07;3.22;;;;;;;12.75;82.78;98690.59;5071868;28;20119;-33
2023/01/18 01:52:09;;;;;;;10.70;3.70;;;;;;;12.77;82.61;98661.72;5090539;28;20028;-29
2023/01/18 01:54:58;;;;;;;;;;;;;;;12.87;83.33;98693.00;5090529;28;20020;-33
2023/01/18 01:57:31;;;;;;;9.38;3.40;;;;;;;12.66;84.07;98686.84;5061016;28;19923;-28
2023/01/18 02:00:18;;;;;;;12.02;2.90;;;;;;;14.65;79.08;98695.44;5090293;28;20032;-28
2023/01/18 02:02:51;;;;;;;6.28;2.10;;;;;;;14.30;74.53;98665.03;5089916;28;20040;-29
2023/01/18 02:05:17;;;;;;;10.23;2.10;;;;;;;15.12;73.22;98685.94;5090381;28;20028;-28
2023/01/18 02:07:43;;;;;;;10.60;2.00;;;;;;;14.59;75.28;98667.03;5090055;28;20148;-28
2023/01/18 02:10:09;;;;;;;8.63;2.05;;;;;;;14.73;74.33;98704.75;5090006;28;20024;-28
2023/01/18 02:12:37;;;;;;;10.43;1.98;;;;;;;13.93;76.72;98711.84;5089936;28;20027;-30
2023/01/18 02:15:03;;;;;;;;;;;;;;;14.73;73.29;98700.22;5071890;28;20054;-31
2023/01/18 02:17:37;;;;;;;8.27;1.80;;;;;;;15.13;73.55;98714.38;5089820;28;19955;-33
2023/01/18 02:20:40;;;;;;;7.95;2.80;;;;;;;15.86;70.80;98715.31;5090010;28;20040;-31
2023/01/18 02:23:40;;;;;;;20.25;5.43;;;;;;;16.30;65.16;98716.91;5089744;28;20024;-29
2023/01/18 02:26:14;;;;;;;24.65;14.63;;;;;;;16.11;66.46;98718.78;5090006;28;20597;-29
2023/01/18 02:28:48;;;;;;;18.73;12.85;;;;;;;15.59;66.78;98695.16;5071657;28;20119;-29
2023/01/18 02:31:17;;;;;;;14.73;9.00;;;;;;;15.50;68.44;98691.47;5089680;28;20024;-28
2023/01/18 02:33:45;;;;;;;17.30;10.30;;;;;;;15.34;69.53;98700.75;5071209;28;20020;-31
2023/01/18 02:36:23;;;;;;;6.68;3.17;;;;;;;14.62;70.86;98698.66;5089694;28;20048;-30
2023/01/18 02:38:53;;;;;;;;;;;;;;;14.68;72.26;98713.66;5071892;28;20036;-29
2023/01/18 02:46:29;;;;;;;10.68;4.45;;;;;;;13.61;75.78;98713.03;5089426;28;19912;-28
2023/01/18 02:47:08;;;;;;;9.00;3.70;;;;;;;13.99;75.43;98713.44;5089642;28;20065;-29
2023/01/18 02:49:33;;;;;;;13.23;3.55;;;;;;;14.75;72.73;98695.38;5089592;28;20035;-29
2023/01/18 02:52:04;;;;;;;9.65;3.88;;;;;;;14.20;75.27;98703.44;5071438;28;20503;-29
2023/01/18 02:54:32;;;;;;;21.77;11.15;;;;;;;13.52;77.60;98725.38;5089271;28;20406;-29
2023/01/18 02:57:01;;;;;;;13.25;4.82;;;;;;;13.75;77.33;98725.84;5070908;28;20126;-29
2023/01/18 02:59:34;;;;;;;7.18;2.00;;;;;;;13.30;78.08;98700.78;5071072;28;20138;-29
2023/01/18 03:02:01;;;;;;;15.48;8.35;;;;;;;13.23;79.07;98723.25;5088823;28;20544;-34
2023/01/18 03:04:32;;;;;;;13.70;3.20;;;;;;;13.50;78.77;98730.19;5089377;28;20028;-29
2023/01/18 03:07:18;;;;;;;10.73;5.53;;;;;;;14.52;74.59;98725.53;5070980;28;20032;-30
2023/01/18 03:09:44;;;;;;;20.25;12.90;;;;;;;13.89;75.58;98702.75;5089473;28;20062;-30
2023/01/18 03:12:45;;;;;;;12.63;6.95;;;;;;;14.38;72.88;98704.66;5089114;28;20103;-29
2023/01/18 03:15:53;;;;;;;28.33;20.40;;;;;;;13.73;74.72;98709.25;5060022;28;20036;-32
2023/01/18 03:18:35;;;;;;;16.52;8.10;;;;;;;13.54;75.97;98691.09;5087067;28;20064;-29
2023/01/18 03:21:04;;;;;;;42.38;36.85;;;;;;;13.56;75.55;98713.03;5089273;28;20032;-29
2023/01/18 03:23:38;;;;;;;14.00;6.47;;;;;;;13.45;75.12;98682.00;5088768;28;20051;-28
2023/01/18 03:26:15;;;;;;;29.95;23.15;;;;;;;13.49;76.75;98723.25;5088911;28;20117;-28
2023/01/18 03:34:37;;;;;;;19.35;12.10;;;;;;;13.31;79.08;98718.44;5073441;28;20066;-33
2023/01/18 03:37:11;;;;;;;11.45;5.88;;;;;;;13.16;79.90;98689.81;5070778;28;20498;-29
2023/01/18 03:39:45;;;;;;;9.70;2.85;;;;;;;13.71;77.18;98684.59;5088797;28;20028;-29
2023/01/18 03:42:20;;;;;;;7.10;1.70;;;;;;;13.61;74.66;98696.97;5088802;28;20020;-30
2023/01/18 03:45:03;;;;;;;13.73;4.97;;;;;;;13.35;75.00;98682.84;5070590;28;20039;-30
2023/01/18 03:47:29;;;;;;;9.43;2.40;;;;;;;13.30;76.61;98711.47;5070533;28;20446;-28
2023/01/18 03:49:55;;;;;;;10.10;2.58;;;;;;;13.25;77.40;98723.78;5089041;28;20526;-29
2023/01/18 03:52:25;;;;;;;7.60;2.10;;;;;;;13.01;80.02;98726.19;5070480;28;20086;-29
2023/01/18 03:55:05;;;;;;;11.23;3.47;;;;;;;12.69;82.35;98702.38;5089005;28;20038;-32
2023/01/18 03:57:35;;;;;;;8.23;3.20;;;;;;;12.54;83.67;98718.38;5088802;28;20402;-29
2023/01/18 04:00:04;;;;;;;14.05;3.03;;;;;;;12.43;84.60;98721.03;5088746;28;20050;-29
2023/01/18 04:02:30;;;;;;;17.20;6.35;;;;;;;12.50;84.71;98731.47;5070465;28;20032;-28
2023/01/18 04:04:57;;;;;;;11.52;6.28;;;;;;;12.37;84.81;98727.44;5070589;28;20039;-28
2023/01/18 04:07:24;;;;;;;16.08;3.35;;;;;;;12.19;85.21;98688.63;5088425;28;20028;-31
2023/01/18 04:09:50;;;;;;;12.23;5.25;;;;;;;12.23;85.88;98707.63;5070528;28;20039;-32
2023/01/18 04:12:15;;;;;;;12.68;4.20;;;;;;;12.03;87.09;98722.53;5089042;28;20032;-32
2023/01/18 04:14:40;;;;;;;15.68;8.05;;;;;;;11.73;87.88;98707.13;5074073;28;20032;-28
2023/01/18 04:17:06;;;;;;;11.43;4.10;;;;;;;11.91;86.92;98724.63;5092527;28;20395;-30
2023/01/18 04:19:31;;;;;;;13.10;5.13;;;;;;;11.98;85.74;98719.03;5073678;28;20115;-30
2023/01/18 04:21:57;;;;;;;12.70;4.45;;;;;;;11.92;84.92;98696.81;5092273;28;20020;-31
2023/01/18 04:24:22;;;;;;;13.07;4.70;;;;;;;11.82;86.49;98715.44;5091771;28;20020;-34
2023/01/18 04:26:47;;;;;;;17.83;7.40;;;;;;;11.85;87.05;98731.75;5092200;28;20020;-29
2023/01/18 04:29:13;;;;;;;20.38;7.88;;;;;;;11.38;89.08;98713.03;5091870;28;20024;-32
2023/01/18 04:31:38;;;;;;;20.95;11.13;;;;;;;11.68;87.98;98744.47;5073722;28;20410;-31
2023/01/18 04:34:04;;;;;;;8.43;2.15;;;;;;;11.78;83.56;98746.41;5073459;28;20028;-31
2023/01/18 04:36:29;;;;;;;5.25;1.27;;;;;;;12.48;77.47;98743.50;5091508;28;20052;-28
2023/01/18 04:38:54;;;;;;;6.32;1.85;;;;;;;13.00;75.46;98750.56;5073382;28;20455;-31
2023/01/18 04:41:20;;;;;;;8.50;2.55;;;;;;;12.88;75.63;98718.69;5091411;28;20031;-31
2023/01/18 04:43:46;;;;;;;7.55;1.80;;;;;;;13.14;74.52;98745.47;5091864;28;20026;-28
2023/01/18 04:46:11;;;;;;;7.50;2.13;;;;;;;13.11;74.00;98730.75;5091543;28;20036;-34
2023/01/18 04:48:37;;;;;;;7.80;1.92;;;;;;;13.20;74.17;98755.91;5073450;28;20047;-29
2023/01/18 04:51:02;;;;;;;7.60;3.42;;;;;;;13.03;74.30;98737.41;5091766;28;20457;-29
2023/01/18 04:53:27;;;;;;;11.52;4.93;;;;;;;13.25;74.85;98747.88;5091195;28;20062;-29
2023/01/18 04:55:53;;;;;;;20.70;9.65;;;;;;;12.93;76.17;98747.31;5091525;28;20115;-31
2023/01/18 04:58:18;;;;;;;11.80;3.70;;;;;;;12.52;79.06;98739.25;5091361;28;20031;-29
2023/01/18 05:00:44;;;;;;;29.13;16.08;;;;;;;12.43;81.04;98763.81;5091479;28;20056;-28
2023/01/18 05:03:10;;;;;;;75.05;44.80;;;;;;;12.24;82.03;98774.19;5091384;28;20101;-28
2023/01/18 05:05:36;;;;;;;31.35;15.57;;;;;;;12.02;83.39;98771.66;5072880;28;20481;-30
2023/01/18 05:08:01;;;;;;;12.50;2.97;;;;;;;11.91;84.49;98770.03;5091000;28;20038;-28
2023/01/18 05:10:27;;;;;;;11.55;2.65;;;;;;;11.90;84.71;98763.06;5091596;28;20043;-28
2023/01/18 05:12:52;;;;;;;10.52;3.25;;;;;;;11.70;86.01;98768.25;5091297;28;20407;-28
2023/01/18 05:15:18;;;;;;;17.27;6.72;;;;;;;11.91;84.86;98787.91;5072833;28;20040;-29
2023/01/18 05:17:43;;;;;;;9.38;2.63;;;;;;;12.23;83.03;98785.13;5090978;28;20024;-28
2023/01/18 05:20:10;;;;;;;16.55;8.45;;;;;;;11.87;84.23;98758.22;5091323;28;20415;-28
2023/01/18 05:22:36;;;;;;;39.17;25.08;;;;;;;11.91;84.06;98778.03;5090760;28;20036;-32
2023/01/18 05:25:05;;;;;;;42.95;25.83;;;;;;;11.57;84.92;98767.66;5072390;28;20542;-32
2023/01/18 05:27:31;;;;;;;31.60;19.40;;;;;;;11.43;86.18;98777.16;5091107;28;20020;-28
2023/01/18 05:29:57;;;;;;;13.48;5.47;;;;;;;11.45;85.67;98780.38;5072391;28;20035;-28
2023/01/18 05:32:22;;;;;;;9.98;3.42;;;;;;;11.74;83.42;98772.81;5090659;28;20028;-30
2023/01/18 05:34:48;;;;;;;16.15;3.33;;;;;;;12.01;82.66;98786.09;5090312;28;20047;-29
2023/01/18 05:37:14;;;;;;;11.18;3.60;;;;;;;11.91;83.09;98761.19;5090185;28;20032;-29
2023/01/18 05:39:39;;;;;;;8.85;2.42;;;;;;;11.92;83.21;98763.59;5090890;28;20427;-27
2023/01/18 05:42:05;;;;;;;10.10;2.55;;;;;;;11.97;83.32;98771.66;5090702;28;20028;-30
2023/01/18 05:44:30;;;;;;;15.73;3.40;;;;;;;12.03;83.20;98778.63;5090485;28;20024;-28
2023/01/18 05:46:57;;;;;;;12.52;3.17;;;;;;;12.17;83.12;98794.97;5072188;28;20498;-29
2023/01/18 05:49:22;;;;;;;17.23;5.03;;;;;;;12.11;83.69;98795.22;5072025;28;20453;-29
2023/01/18 05:51:48;;;;;;;20.23;5.47;;;;;;;12.25;83.48;98809.72;5090031;28;20024;-29
2023/01/18 05:54:13;;;;;;;45.42;19.75;;;;;;;12.30;83.37;98801.75;5090491;28;20032;-31
2023/01/18 05:56:41;;;;;;;20.00;7.10;;;;;;;12.20;84.47;98810.50;5090222;28;20020;-29
2023/01/18 05:59:07;;;;;;;16.52;3.90;;;;;;;12.19;84.75;98816.13;5090073;28;20477;-33
2023/01/18 06:01:32;;;;;;;28.35;11.75;;;;;;;12.22;84.05;98788.88;5089979;28;20059;-29
2023/01/18 06:03:58;;;;;;;15.18;6.68;;;;;;;12.21;84.88;98811.31;5071822;28;20032;-28
2023/01/18 06:06:23;;;;;;;19.15;8.68;;;;;;;11.92;86.64;98795.66;5089960;28;20107;-28
2023/01/18 06:08:49;;;;;;;19.13;6.45;;;;;;;11.90;86.70;98772.94;5072044;28;20547;-29
2023/01/18 06:11:14;;;;;;;19.70;6.65;;;;;;;11.98;87.23;98786.63;5090019;28;20441;-29
2023/01/18 06:13:39;;;;;;;16.88;3.63;;;;;;;11.88;88.29;98789.19;5090198;28;20089;-30
2023/01/18 06:16:05;;;;;;;11.15;4.13;;;;;;;11.71;88.98;98783.22;5089881;28;20070;-28
2023/01/18 06:18:32;;;;;;;16.73;3.95;;;;;;;11.86;89.03;98812.69;5089663;28;20471;-28
2023/01/18 06:21:00;;;;;;;15.05;4.60;;;;;;;11.58;90.68;98809.28;5071266;28;20035;-29
2023/01/18 06:23:27;;;;;;;15.70;6.90;;;;;;;11.53;91.70;98814.59;5089648;28;20115;-29
2023/01/18 06:25:53;;;;;;;17.55;5.65;;;;;;;11.32;93.23;98805.66;5089893;28;20028;-29
2023/01/18 06:28:18;;;;;;;14.00;3.90;;;;;;;11.32;93.26;98802.16;5089633;28;20048;-30
2023/01/18 06:30:46;;;;;;;16.95;5.55;;;;;;;11.21;93.63;98810.06;5089623;28;20027;-31
2023/01/18 06:33:13;;;;;;;17.95;6.15;;;;;;;11.53;92.51;98819.16;5071578;28;20073;-29
2023/01/18 06:35:40;;;;;;;12.75;5.85;;;;;;;11.58;91.95;98825.31;5088648;28;20094;-29
2023/01/18 06:38:06;;;;;;;17.30;5.75;;;;;;;11.64;91.20;98821.63;5071589;28;20024;-28
2023/01/18 06:40:31;;;;;;;22.38;7.78;;;;;;;11.68;91.89;98832.59;5089552;28;20039;-32
2023/01/18 06:42:57;;;;;;;25.70;10.55;;;;;;;11.83;91.37;98829.25;5071411;28;20399;-29
2023/01/18 06:45:24;;;;;;;24.58;14.45;;;;;;;12.10;90.39;98828.38;5089391;28;20403;-30
2023/01/18 06:47:50;;;;;;;20.60;10.43;;;;;;;12.13;90.35;98833.19;5071159;28;20119;-29
2023/01/18 06:50:16;;;;;;;17.83;6.93;;;;;;;12.30;89.84;98839.16;5071052;28;20032;-29
2023/01/18 06:52:42;;;;;;;17.00;8.77;;;;;;;12.41;89.98;98840.81;5071361;28;20024;-29
2023/01/18 06:55:09;;;;;;;22.67;8.98;;;;;;;12.52;89.86;98819.47;5089425;28;20103;-29
2023/01/18 06:57:34;;;;;;;20.30;7.65;;;;;;;12.68;89.59;98821.13;5088965;28;20027;-31
2023/01/18 07:00:00;;;;;;;21.27;7.70;;;;;;;12.99;89.03;98840.72;5089165;28;20032;-29
2023/01/18 07:02:27;;;;;;;16.55;6.05;;;;;;;13.09;88.27;98849.84;5089092;28;20068;-29
2023/01/18 07:04:53;;;;;;;22.92;11.32;;;;;;;13.22;88.68;98855.50;5089576;28;20085;-28
2023/01/18 07:07:18;;;;;;;27.85;11.50;;;;;;;13.20;87.29;98836.22;5089104;28;20028;-28
2023/01/18 07:09:44;;;;;;;21.95;8.23;;;;;;;13.45;87.23;98861.44;5071093;28;20032;-31
2023/01/18 07:12:09;;;;;;;13.70;4.50;;;;;;;13.35;87.62;98835.44;5089238;28;20088;-29
2023/01/18 07:14:35;;;;;;;16.30;4.65;;;;;;;13.45;88.55;98853.41;5070884;28;20120;-29
2023/01/18 07:17:00;;;;;;;19.55;4.43;;;;;;;13.48;88.17;98850.19;5070874;28;20028;-30
2023/01/18 07:19:26;;;;;;;11.68;3.22;;;;;;;13.48;88.02;98852.06;5070280;28;20034;-29
2023/01/18 07:21:52;;;;;;;14.80;4.30;;;;;;;13.76;86.89;98859.56;5089240;28;20024;-30
2023/01/18 07:24:18;;;;;;;12.95;5.00;;;;;;;13.90;85.58;98843.75;5089028;28;20039;-30
2023/01/18 07:26:44;;;;;;;10.63;2.85;;;;;;;14.30;84.21;98873.41;5070901;28;20028;-28
2023/01/18 07:29:10;;;;;;;14.15;3.38;;;;;;;14.43;83.37;98868.28;5089163;28;20082;-29
2023/01/18 07:31:37;;;;;;;12.75;3.58;;;;;;;14.73;82.39;98882.69;5088451;28;20080;-33
2023/01/18 07:34:03;;;;;;;11.15;3.15;;;;;;;15.02;80.01;98863.22;5088035;28;20059;-29
2023/01/18 07:36:28;;;;;;;13.07;4.00;;;;;;;15.10;79.19;98865.31;5087799;28;20050;-31
2023/01/18 07:38:54;;;;;;;17.55;7.78;;;;;;;15.21;77.72;98868.75;5088360;28;20462;-29
2023/01/18 07:41:21;;;;;;;11.57;2.92;;;;;;;15.44;76.14;98873.41;5088111;28;20126;-30
2023/01/18 07:43:47;;;;;;;14.00;2.65;;;;;;;15.72;73.64;98872.94;5085790;28;20024;-28
2023/01/18 07:46:17;;;;;;;9.57;2.20;;;;;;;15.91;72.29;98878.44;5069264;28;20124;-31
2023/01/18 07:48:43;;;;;;;8.93;2.40;;;;;;;15.75;72.70;98881.28;5091660;28;20020;-30
2023/01/18 07:51:09;;;;;;;14.02;3.22;;;;;;;15.39;76.76;98861.91;5073320;28;20035;-29
2023/01/18 07:53:36;;;;;;;13.55;2.60;;;;;;;15.17;77.22;98860.44;5074035;28;20024;-29
2023/01/18 07:56:04;;;;;;;9.05;2.67;;;;;;;14.89;78.90;98879.91;5073849;28;20047;-29
2023/01/18 07:58:29;;;;;;;13.43;3.58;;;;;;;14.75;80.42;98891.28;5073987;28;20517;-28
2023/01/18 08:01:01;;;;;;;14.15;3.65;;;;;;;15.12;79.78;98884.63;5092223;28;20035;-29
2023/01/18 08:03:27;;;;;;;10.05;2.75;;;;;;;15.15;79.48;98888.66;5072956;28;20115;-29
2023/01/18 08:05:52;;;;;;;10.82;2.90;;;;;;;15.55;77.73;98876.81;5092235;28;20120;-28
2023/01/18 08:08:18;;;;;;;12.50;3.30;;;;;;;15.86;76.85;98892.72;5091177;28;20044;-30
2023/01/18 08:10:43;;;;;;;19.85;4.18;;;;;;;15.72;76.43;98887.19;5091029;28;20056;-32
2023/01/18 08:13:09;;;;;;;13.25;3.13;;;;;;;15.48;76.89;98882.50;5091096;28;20482;-29
2023/01/18 08:15:36;;;;;;;16.75;4.03;;;;;;;15.66;76.28;98889.09;5072297;28;20059;-31
2023/01/18 08:18:03;;;;;;;15.13;3.57;;;;;;;15.62;72.65;98896.09;5090861;28;20506;-29
2023/01/18 08:20:29;;;;;;;12.32;3.10;;;;;;;15.71;75.16;98900.88;5090576;28;20031;-31
2023/01/18 08:22:56;;;;;;;13.05;2.30;;;;;;;15.86;69.26;98916.94;5090793;28;20106;-33
2023/01/18 08:25:23;;;;;;;11.73;1.73;;;;;;;16.11;69.58;98915.88;5090667;28;20032;-34
2023/01/18 08:27:49;;;;;;;8.35;1.73;;;;;;;16.47;68.82;98897.50;5072748;28;20043;-31
2023/01/18 08:30:15;;;;;;;10.43;1.92;;;;;;;16.50;67.31;98924.94;5072071;28;20020;-31
2023/01/18 08:32:40;;;;;;;9.52;1.83;;;;;;;16.35;67.01;98932.06;5090572;28;20071;-31
2023/01/18 08:35:06;;;;;;;6.40;1.80;;;;;;;16.27;68.00;98908.47;5090364;28;20055;-30
2023/01/18 08:37:32;;;;;;;8.15;1.90;;;;;;;16.40;66.60;98923.94;5090553;28;20036;-30
2023/01/18 08:39:57;;;;;;;10.30;1.77;;;;;;;16.32;68.13;98916.50;5090426;28;20031;-28
2023/01/18 08:42:23;;;;;;;11.18;2.10;;;;;;;16.13;68.18;98912.94;5090329;28;20031;-30
2023/01/18 08:44:48;;;;;;;12.95;2.22;;;;;;;15.94;68.57;98910.94;5090621;28;20449;-30
2023/01/18 08:47:14;;;;;;;11.48;1.95;;;;;;;16.18;68.48;98899.41;5090155;28;20580;-33
2023/01/18 08:49:40;;;;;;;6.82;1.88;;;;;;;16.19;68.11;98885.69;5090571;28;20031;-29
2023/01/18 08:52:06;;;;;;;5.95;1.65;;;;;;;16.48;68.91;98899.09;5090529;28;20024;-32
2023/01/18 08:54:31;;;;;;;7.40;1.23;;;;;;;16.39;65.25;98883.88;5072967;28;20125;-29
2023/01/18 08:56:57;;;;;;;11.00;1.98;;;;;;;16.88;65.07;98904.31;5091041;28;20026;-32
2023/01/18 08:59:22;;;;;;;7.93;1.50;;;;;;;16.96;64.86;98892.09;5071971;28;20024;-30
2023/01/18 09:01:48;;;;;;;9.73;1.52;;;;;;;17.20;63.02;98879.38;5072986;28;20028;-29
2023/01/18 09:04:13;;;;;;;8.25;1.70;;;;;;;17.51;60.59;98903.19;5091418;28;20085;-29
2023/01/18 09:06:39;;;;;;;7.35;1.90;;;;;;;17.60;59.54;98906.81;5072525;28;20034;-29
2023/01/18 09:09:04;;;;;;;5.22;1.50;;;;;;;17.68;58.35;98905.34;5090915;28;20035;-30
2023/01/18 09:11:30;;;;;;;6.80;1.25;;;;;;;17.79;58.32;98887.09;5090727;28;20028;-30
2023/01/18 09:13:57;;;;;;;6.68;1.08;;;;;;;17.88;56.68;98898.84;5089727;28;20039;-30
2023/01/18 09:16:23;;;;;;;4.10;1.10;;;;;;;18.05;57.52;98901.78;5091001;28;20054;-31
2023/01/18 09:18:49;;;;;;;6.40;1.20;;;;;;;18.24;54.34;98909.00;5090921;28;20094;-29
2023/01/18 09:21:18;;;;;;;7.35;1.13;;;;;;;18.35;56.22;98904.22;5090648;28;20035;-28
2023/01/18 09:23:44;;;;;;;5.32;1.20;;;;;;;18.58;55.87;98888.94;5090767;28;20028;-29
2023/01/18 09:26:15;;;;;;;9.10;1.38;;;;;;;18.59;55.69;98920.22;5090743;28;20032;-30
2023/01/18 09:28:43;;;;;;;6.43;1.38;;;;;;;18.60;56.06;98911.03;5090953;28;20043;-33
2023/01/18 09:31:11;;;;;;;4.22;1.08;;;;;;;18.55;56.53;98898.44;5090904;28;20793;-31
2023/01/18 09:33:38;;;;;;;;;;;;;;;18.56;55.88;98915.44;5072500;28;20047;-31
2023/01/18 09:36:06;;;;;;;5.47;0.95;;;;;;;18.41;54.88;98903.84;5090306;28;20025;-31
2023/01/18 09:38:32;;;;;;;6.05;1.10;;;;;;;18.65;56.20;98924.44;5072249;28;20031;-29
2023/01/18 09:40:59;;;;;;;6.15;1.40;;;;;;;18.70;55.69;98908.13;5090362;28;20024;-33
2023/01/18 09:43:30;;;;;;;4.57;1.05;;;;;;;18.92;51.27;98922.84;5072028;28;20502;-35
2023/01/18 09:45:55;;;;;;;9.02;1.52;;;;;;;19.10;53.15;98930.03;5090244;28;20039;-30
2023/01/18 09:48:36;;;;;;;5.00;1.30;;;;;;;19.13;54.07;98897.00;5090369;28;20031;-31
2023/01/18 09:51:19;;;;;;;5.95;1.05;;;;;;;19.17;54.95;98876.38;5072128;28;20063;-30
2023/01/18 09:54:04;;;;;;;5.35;1.25;;;;;;;19.43;52.74;98908.22;5072117;28;20059;-30
2023/01/18 09:57:13;;;;;;;4.13;0.95;;;;;;;19.59;53.03;98912.16;5072046;28;20055;-30
2023/01/18 09:59:56;;;;;;;6.57;1.50;;;;;;;19.51;50.09;98890.47;5070800;28;20415;-33
2023/01/18 10:02:26;;;;;;;4.93;1.10;;;;;;;19.47;51.60;98906.50;5071957;28;20032;-30
2023/01/18 10:04:57;;;;;;;8.90;1.50;;;;;;;19.51;54.00;98896.66;5072042;28;20024;-29
2023/01/18 10:07:27;;;;;;;8.27;1.27;;;;;;;19.44;49.79;98909.81;5089391;28;20038;-31
2023/01/18 10:09:55;;;;;;;7.75;1.58;;;;;;;19.55;49.50;98907.66;5089506;28;20744;-32
2023/01/18 10:12:35;;;;;;;4.13;1.00;;;;;;;19.50;49.24;98919.41;5065430;28;20123;-29
2023/01/18 10:15:21;;;;;;;2.10;0.60;;;;;;;19.33;48.49;98908.44;5071227;28;20101;-30
2023/01/18 10:17:50;;;;;;;4.93;1.58;;;;;;;19.75;48.93;98909.91;5086919;28;20047;-34
2023/01/18 10:20:23;;;;;;;6.38;1.15;;;;;;;19.97;48.24;98940.78;5089298;28;20012;-31
2023/01/18 10:22:58;;;;;;;10.38;1.55;;;;;;;19.90;47.90;98946.66;5069182;28;20020;-29
2023/01/18 10:25:37;;;;;;;5.35;1.42;;;;;;;19.94;46.59;98936.81;5068358;28;20032;-30
2023/01/18 10:28:03;;;;;;;5.25;1.08;;;;;;;20.26;48.87;98934.91;5086460;28;20032;-30
2023/01/18 10:30:31;;;;;;;7.35;1.65;;;;;;;20.20;47.62;98936.94;5089122;28;20169;-29
2023/01/18 10:33:00;;;;;;;5.38;1.30;;;;;;;19.96;47.28;98933.75;5088840;28;20033;-29
2023/01/18 10:35:33;;;;;;;6.45;1.50;;;;;;;19.96;48.17;98912.94;5070445;28;20487;-30
2023/01/18 10:38:07;;;;;;;4.85;1.50;;;;;;;20.12;48.43;98912.53;5089176;28;20565;-31
2023/01/18 10:40:36;;;;;;;9.38;3.20;;;;;;;19.99;46.91;98930.47;5054960;28;20048;-32
2023/01/18 10:43:03;;;;;;;;;;;;;;;19.83;46.90;98940.84;5071650;28;20031;-29
2023/01/18 10:45:31;;;;;;;5.90;1.67;;;;;;;19.52;47.81;98929.94;5070737;28;20280;-30
2023/01/18 10:48:05;;;;;;;6.95;1.63;;;;;;;18.91;48.59;98910.44;5069318;28;20093;-29
2023/01/18 10:50:37;;;;;;;7.07;1.92;;;;;;;18.79;47.80;98927.94;5053861;28;20024;-32
2023/01/18 10:53:20;;;;;;;4.47;0.90;;;;;;;19.08;46.73;98937.63;5088540;28;20032;-29
2023/01/18 10:56:26;;;;;;;8.38;1.45;;;;;;;19.16;45.93;98915.28;5088766;28;20028;-30
2023/01/18 10:58:57;;;;;;;6.18;1.27;;;;;;;19.52;47.42;98944.25;5051719;28;20062;-29
2023/01/18 11:01:32;;;;;;;6.80;2.40;;;;;;;19.80;45.65;98938.78;5070392;28;20024;-33
2023/01/18 11:04:06;;;;;;;7.90;1.65;;;;;;;20.07;45.11;98952.16;5088884;28;20448;-34
2023/01/18 11:06:47;;;;;;;7.03;2.08;;;;;;;20.56;44.37;98925.16;5070335;28;20053;-31
2023/01/18 11:09:38;;;;;;;15.32;4.00;;;;;;;21.26;43.98;98953.25;5070731;28;20109;-30
2023/01/18 11:12:37;;;;;;;6.50;2.30;;;;;;;21.10;41.89;98944.00;5088487;28;20020;-29
2023/01/18 11:15:14;;;;;;;6.00;1.88;;;;;;;21.37;44.49;98959.19;5088492;28;20042;-30
2023/01/18 11:17:45;;;;;;;7.30;1.98;;;;;;;20.73;42.72;98939.91;5088769;28;20062;-30
2023/01/18 11:20:22;;;;;;;6.75;1.48;;;;;;;20.66;43.33;98965.56;5088666;28;20151;-29
2023/01/18 11:23:03;;;;;;;10.68;1.73;;;;;;;20.27;45.21;98963.59;5091628;28;20032;-32
2023/01/18 11:25:37;;;;;;;8.13;1.38;;;;;;;20.12;43.89;98978.28;5074426;28;20060;-31
2023/01/18 11:28:08;;;;;;;6.90;1.10;;;;;;;20.44;43.91;98966.38;5074566;28;20120;-30
2023/01/18 11:30:33;;;;;;;6.22;1.40;;;;;;;20.62;43.13;98971.91;5074047;28;20110;-33
2023/01/18 11:32:59;;;;;;;8.73;1.63;;;;;;;20.67;43.70;98977.19;5092699;28;20024;-30
2023/01/18 11:35:36;;;;;;;4.85;1.45;;;;;;;20.30;43.42;98965.66;5091892;28;20078;-36
2023/01/18 11:38:05;;;;;;;7.03;1.75;;;;;;;20.30;44.20;98965.66;5073950;28;20050;-30
2023/01/18 11:40:34;;;;;;;8.07;2.45;;;;;;;20.06;43.61;98955.97;5074295;28;20024;-29
2023/01/18 11:43:10;;;;;;;8.57;1.50;;;;;;;19.75;44.58;98976.75;5092476;28;20063;-29
2023/01/18 11:45:57;;;;;;;5.03;1.63;;;;;;;19.74;44.88;98975.16;5073915;28;20030;-31
2023/01/18 11:48:37;;;;;;;13.13;1.80;;;;;;;19.48;44.38;98970.28;5074315;28;20063;-29
2023/01/18 11:51:18;;;;;;;10.75;1.90;;;;;;;19.36;45.44;98960.00;5092303;28;20028;-29
2023/01/18 11:54:17;;;;;;;9.98;2.10;;;;;;;19.31;45.68;98986.34;5092521;28;20380;-29
2023/01/18 11:56:51;;;;;;;11.68;1.60;;;;;;;19.11;46.62;98982.19;5092055;28;20028;-29
2023/01/18 11:59:38;;;;;;;6.70;1.27;;;;;;;18.99;46.69;98961.06;5091472;28;21374;-30
2023/01/18 12:02:33;;;;;;;9.73;1.50;;;;;;;19.06;48.00;98988.47;5065225;28;20495;-29
2023/01/18 12:05:09;;;;;;;7.63;1.40;;;;;;;18.94;47.53;98974.66;5079063;28;20040;-32
2023/01/18 12:07:53;;;;;;;5.63;1.20;;;;;;;18.89;47.96;98982.88;5090238;28;20471;-31